createdAt,value
2018-09-08T00:02:02.382Z,26.33
2018-09-08T00:04:31.468Z,25.10
2018-09-08T00:07:05.882Z,27.80
2018-09-08T00:09:34.939Z,25.80
2018-09-08T00:12:04.133Z,25.97
2018-09-08T00:14:33.287Z,27.50
2018-09-08T00:17:07.428Z,26.60
2018-09-08T00:19:41.846Z,27.53
2018-09-08T00:22:16.397Z,24.43
2018-09-08T00:24:50.733Z,25.87
2018-09-08T00:27:23.566Z,25.00
2018-09-08T00:29:52.873Z,26.67
2018-09-08T00:32:22.876Z,24.83
2018-09-08T00:34:51.789Z,27.80
2018-09-08T00:37:20.941Z,27.50
2018-09-08T00:39:51.046Z,25.43
2018-09-08T00:42:20.479Z,25.73
2018-09-08T00:44:49.501Z,25.37
2018-09-08T00:47:18.449Z,31.13
2018-09-08T00:49:47.389Z,30.93
2018-09-08T00:52:16.529Z,26.63
2018-09-08T00:54:45.477Z,28.07
2018-09-08T00:57:14.745Z,29.97
2018-09-08T00:59:44.124Z,28.17
2018-09-08T01:02:12.974Z,29.83
2018-09-08T01:04:41.971Z,27.80
2018-09-08T01:07:16.345Z,28.47
2018-09-08T01:09:45.612Z,28.27
2018-09-08T01:12:14.845Z,26.50
2018-09-08T01:14:43.943Z,25.00
2018-09-08T01:17:12.775Z,25.87
2018-09-08T01:19:41.930Z,29.67
2018-09-08T01:22:10.920Z,29.93
2018-09-08T01:24:39.868Z,30.27
2018-09-08T01:27:08.790Z,26.67
2018-09-08T01:29:37.789Z,29.47
2018-09-08T01:32:07.066Z,30.10
2018-09-08T01:34:36.341Z,26.63
2018-09-08T01:37:05.683Z,26.90
2018-09-08T01:39:34.753Z,27.27
2018-09-08T01:42:04.112Z,28.70
2018-09-08T01:44:33.004Z,29.50
2018-09-08T01:47:02.345Z,27.10
2018-09-08T01:49:31.873Z,30.00
2018-09-08T01:52:00.998Z,28.13
2018-09-08T01:54:30.253Z,26.37
2018-09-08T01:56:59.141Z,28.73
2018-09-08T01:59:28.752Z,29.30
2018-09-08T02:01:58.223Z,30.20
2018-09-08T02:04:27.493Z,28.63
2018-09-08T02:06:56.689Z,32.50
2018-09-08T02:09:25.695Z,31.00
2018-09-08T02:11:54.681Z,29.97
2018-09-08T02:14:23.776Z,33.03
2018-09-08T02:16:52.766Z,28.40
2018-09-08T02:19:21.793Z,35.57
2018-09-08T02:21:50.962Z,31.07
2018-09-08T02:24:20.076Z,32.43
2018-09-08T02:26:49.062Z,33.63
2018-09-08T02:29:18.126Z,34.57
2018-09-08T02:31:47.226Z,29.83
2018-09-08T02:34:16.622Z,29.33
2018-09-08T02:36:45.570Z,33.30
2018-09-08T02:39:14.649Z,33.30
2018-09-08T02:41:43.829Z,33.30
2018-09-08T02:44:12.954Z,36.43
2018-09-08T02:46:41.956Z,30.63
2018-09-08T02:49:10.907Z,32.87
2018-09-08T02:51:38.678Z,32.53
2018-09-08T02:54:06.411Z,33.07
2018-09-08T02:56:34.183Z,34.57
2018-09-08T02:59:02.006Z,34.07
2018-09-08T03:01:29.720Z,33.53
2018-09-08T03:03:57.498Z,31.33
2018-09-08T03:06:25.307Z,34.83
2018-09-08T03:08:53.031Z,30.30
2018-09-08T03:11:20.787Z,33.73
2018-09-08T03:13:48.612Z,36.33
2018-09-08T03:16:16.303Z,35.40
2018-09-08T03:18:43.969Z,37.13
2018-09-08T03:21:11.896Z,35.43
2018-09-08T03:23:39.601Z,34.57
2018-09-08T03:26:07.079Z,31.30
2018-09-08T03:28:34.866Z,33.93
2018-09-08T03:31:02.661Z,36.43
2018-09-08T03:33:30.358Z,36.00
2018-09-08T03:35:58.164Z,36.30
2018-09-08T03:38:25.801Z,34.43
2018-09-08T03:40:53.341Z,33.90
2018-09-08T03:43:20.859Z,33.83
2018-09-08T03:45:48.558Z,36.87
2018-09-08T03:48:16.984Z,32.83
2018-09-08T03:50:44.793Z,33.90
2018-09-08T03:53:12.477Z,31.23
2018-09-08T03:55:40.301Z,30.87
2018-09-08T03:58:08.037Z,34.30
2018-09-08T04:00:35.771Z,36.33
2018-09-08T04:03:05.076Z,30.90
2018-09-08T04:05:34.448Z,32.63
2018-09-08T04:08:04.033Z,32.37
2018-09-08T04:10:32.879Z,35.50
2018-09-08T04:13:01.894Z,36.43
2018-09-08T04:15:31.009Z,33.83
2018-09-08T04:18:00.290Z,32.33
2018-09-08T04:20:29.305Z,32.33
2018-09-08T04:22:58.509Z,34.40
2018-09-08T04:25:27.578Z,32.83
2018-09-08T04:27:56.949Z,30.23
2018-09-08T04:30:26.060Z,34.50
2018-09-08T04:32:55.351Z,34.33
2018-09-08T04:35:24.685Z,31.13
2018-09-08T04:37:53.847Z,30.67
2018-09-08T04:40:23.380Z,32.93
2018-09-08T04:42:53.325Z,29.40
2018-09-08T04:45:23.442Z,30.37
2018-09-08T04:47:52.387Z,35.43
2018-09-08T04:50:21.600Z,31.70
2018-09-08T04:52:50.979Z,34.30
2018-09-08T04:55:19.983Z,32.00
2018-09-08T04:57:49.018Z,28.87
2018-09-08T05:00:18.097Z,25.43
2018-09-08T05:02:47.422Z,30.77
2018-09-08T05:05:16.618Z,29.27
2018-09-08T05:07:45.886Z,29.30
2018-09-08T05:10:14.885Z,27.20
2018-09-08T05:12:44.281Z,30.70
2018-09-08T05:15:13.318Z,25.67
2018-09-08T05:17:42.466Z,22.97
2018-09-08T05:20:11.561Z,28.50
2018-09-08T05:22:40.871Z,31.57
2018-09-08T05:25:09.854Z,29.07
2018-09-08T05:27:38.901Z,34.13
2018-09-08T05:30:07.933Z,26.93
2018-09-08T05:32:37.182Z,27.63
2018-09-08T05:35:07.006Z,29.23
2018-09-08T05:37:36.255Z,28.47
2018-09-08T05:40:06.002Z,25.50
2018-09-08T05:42:35.569Z,30.60
2018-09-08T05:45:05.417Z,22.63
2018-09-08T05:47:34.559Z,23.90
2018-09-08T05:50:03.638Z,24.53
2018-09-08T05:52:33.121Z,23.33
2018-09-08T05:55:01.970Z,21.37
2018-09-08T05:57:31.760Z,23.70
2018-09-08T06:00:01.165Z,23.23
2018-09-08T06:02:30.462Z,23.30
2018-09-08T06:04:59.677Z,24.80
2018-09-08T06:07:29.029Z,24.30
2018-09-08T06:09:58.201Z,21.23
2018-09-08T06:12:27.451Z,23.17
2018-09-08T06:14:56.515Z,20.23
2018-09-08T06:17:26.109Z,22.80
2018-09-08T06:19:55.470Z,23.80
2018-09-08T06:22:25.009Z,21.17
2018-09-08T06:24:53.950Z,23.07
2018-09-08T06:27:23.035Z,21.10
2018-09-08T06:29:51.895Z,21.53
2018-09-08T06:32:21.329Z,20.80
2018-09-08T06:34:50.404Z,20.87
2018-09-08T06:37:19.489Z,18.33
2018-09-08T06:39:48.529Z,19.77
2018-09-08T06:42:17.844Z,26.00
2018-09-08T06:44:46.857Z,19.30
2018-09-08T06:47:16.233Z,22.90
2018-09-08T06:49:45.239Z,19.50
2018-09-08T06:52:14.178Z,20.07
2018-09-08T06:54:43.517Z,18.63
2018-09-08T06:57:12.569Z,19.30
2018-09-08T06:59:42.069Z,19.70
2018-09-08T07:02:11.644Z,21.00
2018-09-08T07:04:40.839Z,18.23
2018-09-08T07:07:12.162Z,19.53
2018-09-08T07:09:42.129Z,18.63
2018-09-08T07:12:11.932Z,18.33
2018-09-08T07:14:41.261Z,18.30
2018-09-08T07:17:10.306Z,17.80
2018-09-08T07:19:39.846Z,18.03
2018-09-08T07:22:09.948Z,16.83
2018-09-08T07:24:39.609Z,17.30
2018-09-08T07:27:09.862Z,19.10
2018-09-08T07:29:39.002Z,16.87
2018-09-08T07:32:08.690Z,18.07
2018-09-08T07:34:38.312Z,15.10
2018-09-08T07:37:08.477Z,15.97
2018-09-08T07:39:38.535Z,18.47
2018-09-08T07:42:07.786Z,15.83
2018-09-08T07:44:36.933Z,18.73
2018-09-08T07:47:06.732Z,17.10
2018-09-08T07:49:36.042Z,15.53
2018-09-08T07:52:05.269Z,14.17
2018-09-08T07:54:34.790Z,17.83
2018-09-08T07:57:04.249Z,14.63
2018-09-08T07:59:33.533Z,15.67
2018-09-08T08:02:02.709Z,15.97
2018-09-08T08:04:31.974Z,14.13
2018-09-08T08:07:01.168Z,13.87
2018-09-08T08:09:30.185Z,13.30
2018-09-08T08:12:02.201Z,14.80
2018-09-08T08:14:33.515Z,15.10
2018-09-08T08:17:03.247Z,14.77
2018-09-08T08:19:32.868Z,15.57
2018-09-08T08:22:01.809Z,13.23
2018-09-08T08:24:32.407Z,15.43
2018-09-08T08:27:01.726Z,14.33
2018-09-08T08:29:31.141Z,13.97
2018-09-08T08:32:02.652Z,10.97
2018-09-08T08:34:32.055Z,11.10
2018-09-08T08:37:01.488Z,12.13
2018-09-08T08:39:31.027Z,13.30
2018-09-08T08:42:00.322Z,14.17
2018-09-08T08:44:29.473Z,11.47
2018-09-08T08:46:58.807Z,12.10
2018-09-08T08:49:28.035Z,12.50
2018-09-08T08:52:08.022Z,13.57
2018-09-08T08:54:49.236Z,11.53
2018-09-08T08:57:18.273Z,13.17
2018-09-08T08:59:47.790Z,11.87
2018-09-08T09:02:17.723Z,12.73
2018-09-08T09:04:48.103Z,11.13
2018-09-08T09:07:19.380Z,14.17
2018-09-08T09:09:48.708Z,11.20
2018-09-08T09:12:17.977Z,11.93
2018-09-08T09:14:48.860Z,11.57
2018-09-08T09:17:19.022Z,11.22
2018-09-08T09:19:59.235Z,11.65
2018-09-08T09:22:39.824Z,14.07
2018-09-08T09:25:10.475Z,11.95
2018-09-08T09:27:42.383Z,11.57
2018-09-08T09:30:13.045Z,12.18
2018-09-08T09:32:43.078Z,13.32
2018-09-08T09:35:13.795Z,15.13
2018-09-08T09:37:43.417Z,11.00
2018-09-08T09:40:13.973Z,10.43
2018-09-08T09:42:43.047Z,12.23
2018-09-08T09:45:12.537Z,11.08
2018-09-08T09:47:41.786Z,13.05
2018-09-08T09:50:12.441Z,14.55
2018-09-08T09:52:41.655Z,16.85
2018-09-08T09:55:10.866Z,13.50
2018-09-08T09:57:39.897Z,11.93
2018-09-08T10:00:10.146Z,15.85
2018-09-08T10:02:46.290Z,14.65
2018-09-08T10:05:21.677Z,16.12
2018-09-08T10:07:51.102Z,13.22
2018-09-08T10:10:24.613Z,12.50
2018-09-08T10:12:53.880Z,12.90
2018-09-08T10:15:23.413Z,11.90
2018-09-08T10:17:52.380Z,13.43
2018-09-08T10:20:22.681Z,14.87
2018-09-08T10:22:52.257Z,13.93
2018-09-08T10:25:21.411Z,13.00
2018-09-08T10:27:50.553Z,15.57
2018-09-08T10:30:19.751Z,15.18
2018-09-08T10:32:49.489Z,17.00
2018-09-08T10:35:19.101Z,12.10
2018-09-08T10:37:48.257Z,15.85
2018-09-08T10:40:17.637Z,13.20
2018-09-08T10:42:46.835Z,12.37
2018-09-08T10:45:15.875Z,12.50
2018-09-08T10:47:45.041Z,16.10
2018-09-08T10:50:14.349Z,13.62
2018-09-08T10:52:45.943Z,17.65
2018-09-08T10:55:15.050Z,16.80
2018-09-08T10:57:44.126Z,13.50
2018-09-08T11:00:13.993Z,14.80
2018-09-08T11:02:43.435Z,17.50
2018-09-08T11:05:12.651Z,15.53
2018-09-08T11:07:41.747Z,13.45
2018-09-08T11:10:10.893Z,13.15
2018-09-08T11:12:40.288Z,12.85
2018-09-08T11:15:10.391Z,15.50
2018-09-08T11:17:40.079Z,16.23
2018-09-08T11:20:10.452Z,13.90
2018-09-08T11:22:39.904Z,14.85
2018-09-08T11:25:09.168Z,16.00
2018-09-08T11:27:38.421Z,16.05
2018-09-08T11:30:08.217Z,12.93
2018-09-08T11:32:37.405Z,14.30
2018-09-08T11:35:06.962Z,11.83
2018-09-08T11:37:37.321Z,14.30
2018-09-08T11:40:07.116Z,12.70
2018-09-08T11:42:37.257Z,16.25
2018-09-08T11:45:06.327Z,13.22
2018-09-08T11:47:35.725Z,15.38
2018-09-08T11:50:06.102Z,13.32
2018-09-08T11:52:35.133Z,11.95
2018-09-08T11:55:04.368Z,13.83
2018-09-08T11:57:33.314Z,13.50
2018-09-08T12:00:02.355Z,14.13
2018-09-08T12:02:31.367Z,17.10
2018-09-08T12:05:01.360Z,13.30
2018-09-08T12:07:31.616Z,15.20
2018-09-08T12:10:00.838Z,14.23
2018-09-08T12:12:29.885Z,20.43
2018-09-08T12:14:59.145Z,13.40
2018-09-08T12:17:28.306Z,13.10
2018-09-08T12:19:57.424Z,15.70
2018-09-08T12:22:26.711Z,13.97
2018-09-08T12:24:55.890Z,12.30
2018-09-08T12:27:25.287Z,13.40
2018-09-08T12:29:54.197Z,15.27
2018-09-08T12:32:23.389Z,13.90
2018-09-08T12:34:52.605Z,12.63
2018-09-08T12:37:21.701Z,10.07
2018-09-08T12:39:51.001Z,15.00
2018-09-08T12:42:20.070Z,13.30
2018-09-08T12:44:49.360Z,13.97
2018-09-08T12:47:18.547Z,15.03
2018-09-08T12:49:47.713Z,16.40
2018-09-08T12:52:17.706Z,14.60
2018-09-08T12:54:46.995Z,15.93
2018-09-08T12:57:16.042Z,13.73
2018-09-08T12:59:44.895Z,16.80
2018-09-08T13:02:14.064Z,16.47
2018-09-08T13:04:43.369Z,16.00
2018-09-08T13:07:12.533Z,14.80
2018-09-08T13:09:41.707Z,14.00
2018-09-08T13:12:11.017Z,13.43
2018-09-08T13:14:40.078Z,14.80
2018-09-08T13:17:09.208Z,15.17
2018-09-08T13:19:38.669Z,15.23
2018-09-08T13:22:07.750Z,15.83
2018-09-08T13:24:37.146Z,15.50
2018-09-08T13:27:06.409Z,13.67
2018-09-08T13:29:35.322Z,15.97
2018-09-08T13:32:04.354Z,13.13
2018-09-08T13:34:33.279Z,14.83
2018-09-08T13:37:02.288Z,13.20
2018-09-08T13:39:31.713Z,11.63
2018-09-08T13:42:00.893Z,12.00
2018-09-08T13:44:30.170Z,11.93
2018-09-08T13:46:59.431Z,14.10
2018-09-08T13:49:28.696Z,11.40
2018-09-08T13:51:58.114Z,11.67
2018-09-08T13:54:27.120Z,11.10
2018-09-08T13:56:56.482Z,11.23
2018-09-08T13:59:26.075Z,10.83
2018-09-08T14:01:55.203Z,12.93
2018-09-08T14:04:24.269Z,12.17
2018-09-08T14:06:54.676Z,11.73
2018-09-08T14:09:25.013Z,15.37
2018-09-08T14:11:55.913Z,12.33
2018-09-08T14:14:25.415Z,11.60
2018-09-08T14:16:55.975Z,12.60
2018-09-08T14:19:27.006Z,11.90
2018-09-08T14:21:57.284Z,11.10
2018-09-08T14:24:26.733Z,10.93
2018-09-08T14:26:56.411Z,13.30
2018-09-08T14:29:26.127Z,11.63
2018-09-08T14:31:55.954Z,12.07
2018-09-08T14:34:25.490Z,13.93
2018-09-08T14:36:54.461Z,10.60
2018-09-08T14:39:23.412Z,11.00
2018-09-08T14:41:53.381Z,13.37
2018-09-08T14:44:23.973Z,12.63
2018-09-08T14:46:52.905Z,14.07
2018-09-08T14:49:23.398Z,11.83
2018-09-08T14:51:52.517Z,13.20
2018-09-08T14:54:21.779Z,11.07
2018-09-08T14:56:50.791Z,12.87
2018-09-08T14:59:19.822Z,12.73
2018-09-08T15:01:49.244Z,10.93
2018-09-08T15:04:18.818Z,11.60
2018-09-08T15:06:48.059Z,11.43
2018-09-08T15:09:17.813Z,12.20
2018-09-08T15:11:47.099Z,11.37
2018-09-08T15:14:16.358Z,11.03
2018-09-08T15:16:45.499Z,11.03
2018-09-08T15:19:15.363Z,10.33
2018-09-08T15:21:44.540Z,10.43
2018-09-08T15:24:14.709Z,9.40
2018-09-08T15:26:43.933Z,10.07
2018-09-08T15:29:13.916Z,9.20
2018-09-08T15:31:44.899Z,10.13
2018-09-08T15:34:15.248Z,8.93
2018-09-08T15:36:45.520Z,8.97
2018-09-08T15:39:14.914Z,10.57
2018-09-08T15:41:44.149Z,8.97
2018-09-08T15:44:13.323Z,9.97
2018-09-08T15:46:44.516Z,10.67
2018-09-08T15:49:13.729Z,9.40
2018-09-08T15:51:43.805Z,9.20
2018-09-08T15:54:13.238Z,8.93
2018-09-08T15:56:42.390Z,10.07
2018-09-08T15:59:11.482Z,9.73
2018-09-08T16:01:40.602Z,9.60
2018-09-08T16:04:09.665Z,10.40
2018-09-08T16:06:38.798Z,10.97
2018-09-08T16:09:08.312Z,9.70
2018-09-08T16:11:37.571Z,10.90
2018-09-08T16:14:07.023Z,12.20
2018-09-08T16:16:36.586Z,10.50
2018-09-08T16:19:06.054Z,11.13
2018-09-08T16:21:35.482Z,10.50
2018-09-08T16:24:04.545Z,9.87
2018-09-08T16:26:33.555Z,10.03
2018-09-08T16:29:02.530Z,11.43
2018-09-08T16:31:31.857Z,10.30
2018-09-08T16:34:01.075Z,10.40
2018-09-08T16:36:30.103Z,10.23
2018-09-08T16:38:59.463Z,10.50
2018-09-08T16:41:29.021Z,10.47
2018-09-08T16:43:58.057Z,11.00
2018-09-08T16:46:27.276Z,10.13
2018-09-08T16:48:56.426Z,10.40
2018-09-08T16:51:25.719Z,11.50
2018-09-08T16:53:56.099Z,9.97
2018-09-08T16:56:25.434Z,9.20
2018-09-08T16:58:54.709Z,9.10
2018-09-08T17:01:23.959Z,8.87
2018-09-08T17:03:53.057Z,8.53
2018-09-08T17:06:22.369Z,9.67
2018-09-08T17:08:51.683Z,8.63
2018-09-08T17:11:20.673Z,9.37
2018-09-08T17:13:49.752Z,9.73
2018-09-08T17:16:18.968Z,8.47
2018-09-08T17:18:47.908Z,8.20
2018-09-08T17:21:17.796Z,8.93
2018-09-08T17:23:48.185Z,9.23
2018-09-08T17:26:17.375Z,8.03
2018-09-08T17:28:46.439Z,8.10
2018-09-08T17:31:15.467Z,7.47
2018-09-08T17:33:44.837Z,7.73
2018-09-08T17:36:14.126Z,7.30
2018-09-08T17:38:43.443Z,7.20
2018-09-08T17:41:13.291Z,7.60
2018-09-08T17:43:43.121Z,6.57
2018-09-08T17:46:12.320Z,6.87
2018-09-08T17:48:41.489Z,5.87
2018-09-08T17:51:10.678Z,6.40
2018-09-08T17:53:40.068Z,5.73
2018-09-08T17:56:09.361Z,5.27
2018-09-08T17:58:38.549Z,6.80
2018-09-08T18:01:08.210Z,5.90
2018-09-08T18:03:38.177Z,6.37
2018-09-08T18:06:07.167Z,5.43
2018-09-08T18:08:36.222Z,5.30
2018-09-08T18:11:06.010Z,5.17
2018-09-08T18:13:35.355Z,5.23
2018-09-08T18:16:04.373Z,7.07
2018-09-08T18:18:33.409Z,5.27
2018-09-08T18:21:02.935Z,6.23
2018-09-08T18:23:31.981Z,4.93
2018-09-08T18:26:01.086Z,5.00
2018-09-08T18:28:30.689Z,5.53
2018-09-08T18:30:59.759Z,4.27
2018-09-08T18:33:29.110Z,4.43
2018-09-08T18:35:58.265Z,5.57
2018-09-08T18:38:27.520Z,5.63
2018-09-08T18:40:56.572Z,6.20
2018-09-08T18:43:25.945Z,5.87
2018-09-08T18:45:55.018Z,7.90
2018-09-08T18:48:24.034Z,6.43
2018-09-08T18:50:53.139Z,9.57
2018-09-08T18:53:22.262Z,4.50
2018-09-08T18:55:51.732Z,6.50
2018-09-08T18:58:21.017Z,8.63
2018-09-08T19:00:50.537Z,7.03
2018-09-08T19:03:19.609Z,5.93
2018-09-08T19:05:49.037Z,4.43
2018-09-08T19:08:18.130Z,5.97
2018-09-08T19:10:47.548Z,10.10
2018-09-08T19:13:16.720Z,7.70
2018-09-08T19:15:45.646Z,8.57
2018-09-08T19:18:14.781Z,7.57
2018-09-08T19:20:43.657Z,7.00
2018-09-08T19:23:13.023Z,5.23
2018-09-08T19:25:42.143Z,6.47
2018-09-08T19:28:11.361Z,11.27
2018-09-08T19:30:40.401Z,10.30
2018-09-08T19:33:09.862Z,6.20
2018-09-08T19:35:40.095Z,7.00
2018-09-08T19:38:09.580Z,11.43
2018-09-08T19:40:44.145Z,7.43
2018-09-08T19:43:14.077Z,6.70
2018-09-08T19:45:43.149Z,6.07
2018-09-08T19:48:14.222Z,6.87
2018-09-08T19:50:44.310Z,7.37
2018-09-08T19:53:18.431Z,8.00
2018-09-08T19:55:47.564Z,5.07
2018-09-08T19:58:22.261Z,7.93
2018-09-08T20:00:51.652Z,7.50
2018-09-08T20:03:21.518Z,7.47
2018-09-08T20:05:50.764Z,10.23
2018-09-08T20:08:19.905Z,8.47
2018-09-08T20:10:49.319Z,7.10
2018-09-08T20:13:18.540Z,7.57
2018-09-08T20:15:47.905Z,8.70
2018-09-08T20:18:17.198Z,6.73
2018-09-08T20:20:46.781Z,8.97
2018-09-08T20:23:16.810Z,6.17
2018-09-08T20:25:48.961Z,8.57
2018-09-08T20:28:18.861Z,8.10
2018-09-08T20:30:48.330Z,8.60
2018-09-08T20:33:17.730Z,5.30
2018-09-08T20:35:46.773Z,6.70
2018-09-08T20:38:15.667Z,4.47
2018-09-08T20:40:45.035Z,5.33
2018-09-08T20:43:14.370Z,5.33
2018-09-08T20:45:43.587Z,6.43
2018-09-08T20:48:12.562Z,4.57
2018-09-08T20:50:41.768Z,7.37
2018-09-08T20:53:10.955Z,10.60
2018-09-08T20:55:40.133Z,5.73
2018-09-08T20:58:09.286Z,14.03
2018-09-08T21:00:38.716Z,8.30
2018-09-08T21:03:07.936Z,7.30
2018-09-08T21:05:37.167Z,7.03
2018-09-08T21:08:06.126Z,5.73
2018-09-08T21:10:35.406Z,6.20
2018-09-08T21:13:04.541Z,5.67
2018-09-08T21:15:33.590Z,8.07
2018-09-08T21:18:03.213Z,5.27
2018-09-08T21:20:32.577Z,8.13
2018-09-08T21:23:01.651Z,6.17
2018-09-08T21:25:30.705Z,6.07
2018-09-08T21:27:59.923Z,4.60
2018-09-08T21:30:29.106Z,4.93
2018-09-08T21:32:58.124Z,12.50
2018-09-08T21:35:27.242Z,5.50
2018-09-08T21:37:56.514Z,6.07
2018-09-08T21:40:25.496Z,6.60
2018-09-08T21:42:54.602Z,5.80
2018-09-08T21:45:23.785Z,8.07
2018-09-08T21:47:53.153Z,11.07
2018-09-08T21:50:22.518Z,6.17
2018-09-08T21:52:51.949Z,7.37
2018-09-08T21:55:20.881Z,6.33
2018-09-08T21:57:50.258Z,5.87
2018-09-08T22:00:19.281Z,6.27
2018-09-08T22:02:48.592Z,5.67
2018-09-08T22:05:17.956Z,7.00
2018-09-08T22:07:47.083Z,4.77
2018-09-08T22:10:16.369Z,6.10
2018-09-08T22:12:45.592Z,7.43
2018-09-08T22:15:14.781Z,9.57
2018-09-08T22:17:44.189Z,8.00
2018-09-08T22:20:13.350Z,7.40
2018-09-08T22:22:42.273Z,5.80
2018-09-08T22:25:11.567Z,6.73
2018-09-08T22:27:40.957Z,6.23
2018-09-08T22:30:10.118Z,5.80
2018-09-08T22:32:39.203Z,8.80
2018-09-08T22:35:08.561Z,6.40
2018-09-08T22:37:37.821Z,5.70
2018-09-08T22:40:06.785Z,8.20
2018-09-08T22:42:36.216Z,6.40
2018-09-08T22:45:05.916Z,7.43
2018-09-08T22:47:35.134Z,5.80
2018-09-08T22:50:04.451Z,7.60
2018-09-08T22:52:33.313Z,8.57
2018-09-08T22:55:02.679Z,9.50
2018-09-08T22:57:32.320Z,6.67
2018-09-08T23:00:01.273Z,6.33
2018-09-08T23:02:30.218Z,7.97
2018-09-08T23:04:59.624Z,8.37
2018-09-08T23:07:28.449Z,7.17
2018-09-08T23:09:57.485Z,5.80
2018-09-08T23:12:26.629Z,7.30
2018-09-08T23:14:55.794Z,7.27
2018-09-08T23:17:26.150Z,8.67
2018-09-08T23:19:55.457Z,6.97
2018-09-08T23:22:24.876Z,8.13
2018-09-08T23:24:53.905Z,7.63
2018-09-08T23:27:23.404Z,6.20
2018-09-08T23:29:53.208Z,7.53
2018-09-08T23:32:22.490Z,9.13
2018-09-08T23:34:51.469Z,7.73
2018-09-08T23:37:20.382Z,8.37
2018-09-08T23:39:49.471Z,9.30
2018-09-08T23:42:18.597Z,7.13
2018-09-08T23:44:47.703Z,6.00
2018-09-08T23:47:16.677Z,7.40
2018-09-08T23:49:45.727Z,7.17
2018-09-08T23:52:14.950Z,8.60
2018-09-08T23:54:44.057Z,8.93
2018-09-08T23:57:13.137Z,7.37
2018-09-08T23:59:42.410Z,7.13
